createdAt,value
2023-05-02T00:00:11.210Z,26.82
2023-05-02T00:01:11.234Z,29.52
2023-05-02T00:02:11.312Z,30.04
2023-05-02T00:03:12.268Z,26.62
2023-05-02T00:04:11.448Z,29.33
2023-05-02T00:05:11.294Z,27.92
2023-05-02T00:06:11.795Z,30.11
2023-05-02T00:07:11.294Z,30.06
2023-05-02T00:08:11.223Z,26.72
2023-05-02T00:09:11.238Z,28.23
2023-05-02T00:10:11.260Z,27.67
2023-05-02T00:11:11.240Z,29.34
2023-05-02T00:12:11.212Z,29.83
2023-05-02T00:13:11.220Z,30.09
2023-05-02T00:14:11.226Z,28.87
2023-05-02T00:15:11.242Z,28.95
2023-05-02T00:16:11.268Z,28.51
2023-05-02T00:17:11.470Z,28.92
2023-05-02T00:18:11.257Z,26.95
2023-05-02T00:19:11.206Z,31.12
2023-05-02T00:20:11.236Z,31.52
2023-05-02T00:21:11.214Z,29.43
2023-05-02T00:22:11.201Z,28.86
2023-05-02T00:23:11.234Z,30.88
2023-05-02T00:24:11.222Z,29.10
2023-05-02T00:25:11.211Z,30.89
2023-05-02T00:26:11.273Z,28.24
2023-05-02T00:27:11.217Z,31.54
2023-05-02T00:28:11.226Z,29.34
2023-05-02T00:29:11.253Z,28.86
2023-05-02T00:30:11.437Z,29.76
2023-05-02T00:31:11.274Z,28.72
2023-05-02T00:32:11.290Z,29.43
2023-05-02T00:33:11.328Z,28.03
2023-05-02T00:34:11.229Z,28.33
2023-05-02T00:35:11.207Z,28.94
2023-05-02T00:36:11.261Z,28.65
2023-05-02T00:37:11.228Z,27.79
2023-05-02T00:38:11.244Z,29.22
2023-05-02T00:39:11.219Z,28.32
2023-05-02T00:40:11.234Z,27.83
2023-05-02T00:41:11.275Z,28.77
2023-05-02T00:42:11.215Z,28.72
2023-05-02T00:43:11.161Z,28.44
2023-05-02T00:44:11.189Z,30.70
2023-05-02T00:45:11.204Z,29.16
2023-05-02T00:46:11.320Z,28.64
2023-05-02T00:47:11.212Z,30.85
2023-05-02T00:48:11.349Z,30.97
2023-05-02T00:49:11.195Z,30.31
2023-05-02T00:50:11.204Z,29.65
2023-05-02T00:51:11.280Z,28.03
2023-05-02T00:52:11.186Z,26.58
2023-05-02T00:53:11.256Z,30.71
2023-05-02T00:54:11.192Z,30.33
2023-05-02T00:55:11.224Z,31.88
2023-05-02T00:56:11.266Z,30.88
2023-05-02T00:57:11.189Z,31.02
2023-05-02T00:58:11.180Z,29.43
2023-05-02T00:59:11.176Z,29.81
2023-05-02T01:00:11.191Z,29.38
2023-05-02T01:01:11.308Z,31.45
2023-05-02T01:02:11.239Z,30.36
2023-05-02T01:03:11.173Z,29.91
2023-05-02T01:04:11.218Z,27.46
2023-05-02T01:05:11.125Z,28.47
2023-05-02T01:06:11.338Z,30.24
2023-05-02T01:07:11.148Z,30.00
2023-05-02T01:08:11.120Z,32.45
2023-05-02T01:09:11.147Z,32.85
2023-05-02T01:10:11.129Z,29.60
2023-05-02T01:11:11.252Z,30.95
2023-05-02T01:12:11.117Z,27.24
2023-05-02T01:13:11.160Z,27.59
2023-05-02T01:14:11.146Z,29.60
2023-05-02T01:15:11.119Z,26.98
2023-05-02T01:16:11.300Z,30.62
2023-05-02T01:17:11.092Z,29.62
2023-05-02T01:18:11.143Z,30.76
2023-05-02T01:19:11.073Z,30.87
2023-05-02T01:20:11.070Z,32.22
2023-05-02T01:21:11.254Z,31.92
2023-05-02T01:22:11.070Z,29.68
2023-05-02T01:23:11.084Z,30.90
2023-05-02T01:24:11.088Z,31.06
2023-05-02T01:25:11.057Z,29.00
2023-05-02T01:26:11.272Z,30.03
2023-05-02T01:27:11.072Z,31.47
2023-05-02T01:28:11.075Z,29.78
2023-05-02T01:29:11.067Z,29.96
2023-05-02T01:30:11.042Z,31.21
2023-05-02T01:31:11.346Z,30.01
2023-05-02T01:32:11.012Z,30.84
2023-05-02T01:33:11.065Z,29.41
2023-05-02T01:34:11.067Z,30.09
2023-05-02T01:35:11.077Z,31.17
2023-05-02T01:36:11.096Z,28.48
2023-05-02T01:37:11.123Z,32.88
2023-05-02T01:38:11.197Z,29.13
2023-05-02T01:39:11.157Z,29.31
2023-05-02T01:40:11.195Z,30.45
2023-05-02T01:41:11.283Z,28.00
2023-05-02T01:42:11.175Z,30.72
2023-05-02T01:43:11.200Z,29.34
2023-05-02T01:44:11.172Z,30.22
2023-05-02T01:45:11.169Z,30.16
2023-05-02T01:46:11.182Z,29.90
2023-05-02T01:47:11.314Z,28.43
2023-05-02T01:48:11.210Z,29.02
2023-05-02T01:49:11.108Z,32.06
2023-05-02T01:50:11.118Z,29.01
2023-05-02T01:51:11.157Z,30.77
2023-05-02T01:52:11.142Z,28.86
2023-05-02T01:53:11.114Z,30.66
2023-05-02T01:54:11.117Z,28.42
2023-05-02T01:55:11.119Z,28.10
2023-05-02T01:56:11.275Z,30.10
2023-05-02T01:57:11.100Z,29.93
2023-05-02T01:58:11.109Z,28.58
2023-05-02T01:59:11.099Z,29.68
2023-05-02T02:00:11.084Z,28.76
2023-05-02T02:01:11.172Z,28.62
2023-05-02T02:02:11.083Z,29.07
2023-05-02T02:03:11.112Z,29.48
2023-05-02T02:04:11.150Z,29.60
2023-05-02T02:05:11.036Z,28.72
2023-05-02T02:06:11.318Z,28.91
2023-05-02T02:07:11.063Z,27.98
2023-05-02T02:08:11.041Z,26.56
2023-05-02T02:09:11.060Z,29.19
2023-05-02T02:10:11.070Z,31.40
2023-05-02T02:11:11.075Z,31.97
2023-05-02T02:12:11.031Z,30.20
2023-05-02T02:13:11.044Z,32.14
2023-05-02T02:14:11.031Z,31.58
2023-05-02T02:15:11.005Z,28.32
2023-05-02T02:16:11.005Z,33.23
2023-05-02T02:17:11.106Z,29.16
2023-05-02T02:18:11.066Z,31.48
2023-05-02T02:19:11.016Z,30.83
2023-05-02T02:20:10.991Z,28.24
2023-05-02T02:21:11.300Z,31.44
2023-05-02T02:22:11.003Z,29.03
2023-05-02T02:23:11.043Z,28.40
2023-05-02T02:24:11.108Z,31.66
2023-05-02T02:25:11.015Z,31.26
2023-05-02T02:26:11.277Z,30.42
2023-05-02T02:27:11.048Z,29.74
2023-05-02T02:28:10.979Z,31.41
2023-05-02T02:29:10.988Z,27.81
2023-05-02T02:30:11.004Z,32.28
2023-05-02T02:31:11.033Z,29.68
2023-05-02T02:32:11.011Z,29.46
2023-05-02T02:33:10.996Z,31.56
2023-05-02T02:34:11.023Z,32.03
2023-05-02T02:35:11.017Z,31.51
2023-05-02T02:36:11.053Z,29.02
2023-05-02T02:37:11.009Z,29.20
2023-05-02T02:38:11.008Z,28.92
2023-05-02T02:39:10.995Z,29.89
2023-05-02T02:40:10.981Z,30.72
2023-05-02T02:41:11.300Z,27.83
2023-05-02T02:42:11.056Z,30.44
2023-05-02T02:43:11.040Z,29.82
2023-05-02T02:44:13.381Z,29.17
2023-05-02T02:45:11.126Z,28.92
2023-05-02T02:46:11.447Z,30.80
2023-05-02T02:47:11.136Z,30.23
2023-05-02T02:48:11.181Z,31.55
2023-05-02T02:49:11.123Z,30.89
2023-05-02T02:50:11.152Z,31.81
2023-05-02T02:51:11.142Z,30.73
2023-05-02T02:52:11.116Z,29.05
2023-05-02T02:53:11.131Z,29.45
2023-05-02T02:54:25.457Z,29.76
2023-05-02T02:55:12.124Z,30.03
2023-05-02T02:56:11.214Z,30.19
2023-05-02T02:57:11.074Z,29.60
2023-05-02T02:58:11.074Z,30.48
2023-05-02T02:59:11.060Z,31.39
2023-05-02T03:00:11.084Z,30.18
2023-05-02T03:01:11.133Z,29.38
2023-05-02T03:02:11.132Z,31.58
2023-05-02T03:03:11.138Z,28.76
2023-05-02T03:04:11.135Z,30.10
2023-05-02T03:05:11.020Z,29.72
2023-05-02T03:06:11.084Z,30.67
2023-05-02T03:07:11.025Z,30.88
2023-05-02T03:08:11.000Z,28.78
2023-05-02T03:09:11.002Z,29.40
2023-05-02T03:10:11.006Z,28.72
2023-05-02T03:11:11.015Z,29.43
2023-05-02T03:12:10.988Z,30.63
2023-05-02T03:13:10.955Z,34.06
2023-05-02T03:14:10.950Z,29.37
2023-05-02T03:15:10.944Z,29.56
2023-05-02T03:16:10.971Z,29.55
2023-05-02T03:17:10.952Z,28.90
2023-05-02T03:18:10.985Z,29.09
2023-05-02T03:19:10.958Z,28.77
2023-05-02T03:20:10.921Z,30.83
2023-05-02T03:21:10.893Z,30.01
2023-05-02T03:22:11.280Z,27.39
2023-05-02T03:23:10.874Z,27.64
2023-05-02T03:24:10.883Z,29.08
2023-05-02T03:25:10.907Z,27.40
2023-05-02T03:26:10.898Z,28.43
2023-05-02T03:27:11.343Z,29.99
2023-05-02T03:28:10.906Z,30.82
2023-05-02T03:29:10.880Z,30.39
2023-05-02T03:30:10.837Z,30.29
2023-05-02T03:31:10.856Z,28.77
2023-05-02T03:32:11.030Z,29.61
2023-05-02T03:33:10.915Z,29.34
2023-05-02T03:34:10.861Z,29.63
2023-05-02T03:35:10.839Z,30.00
2023-05-02T03:36:10.847Z,28.47
2023-05-02T03:37:10.823Z,29.10
2023-05-02T03:38:10.897Z,30.11
2023-05-02T03:39:10.804Z,30.20
2023-05-02T03:40:10.809Z,26.56
2023-05-02T03:41:10.792Z,29.99
2023-05-02T03:42:10.806Z,30.38
2023-05-02T03:43:10.758Z,29.80
2023-05-02T03:44:10.792Z,30.29
2023-05-02T03:45:10.745Z,28.36
2023-05-02T03:46:10.728Z,30.49
2023-05-02T03:47:10.851Z,29.58
2023-05-02T03:48:10.756Z,29.15
2023-05-02T03:49:10.719Z,29.37
2023-05-02T03:50:10.736Z,31.20
2023-05-02T03:51:11.293Z,30.84
2023-05-02T03:52:10.724Z,30.37
2023-05-02T03:53:10.711Z,28.67
2023-05-02T03:54:10.751Z,27.07
2023-05-02T03:55:10.737Z,29.30
2023-05-02T03:56:10.692Z,31.16
2023-05-02T03:57:10.826Z,30.92
2023-05-02T03:58:10.805Z,27.56
2023-05-02T03:59:10.713Z,29.13
2023-05-02T04:00:10.689Z,31.06
2023-05-02T04:01:10.707Z,28.66
2023-05-02T04:02:10.766Z,30.78
2023-05-02T04:03:10.738Z,28.43
2023-05-02T04:04:10.730Z,29.63
2023-05-02T04:05:10.706Z,31.66
2023-05-02T04:06:10.690Z,29.18
2023-05-02T04:07:10.692Z,33.05
2023-05-02T04:08:10.664Z,26.64
2023-05-02T04:09:10.669Z,27.91
2023-05-02T04:10:10.670Z,29.23
2023-05-02T04:11:10.689Z,30.58
2023-05-02T04:12:10.708Z,31.72
2023-05-02T04:13:10.665Z,31.24
2023-05-02T04:14:10.673Z,29.77
2023-05-02T04:15:10.682Z,28.60
2023-05-02T04:16:10.677Z,28.67
2023-05-02T04:17:10.770Z,31.21
2023-05-02T04:18:10.704Z,28.42
2023-05-02T04:19:10.642Z,29.86
2023-05-02T04:20:10.653Z,28.11
2023-05-02T04:21:10.625Z,27.58
2023-05-02T04:22:10.831Z,29.64
2023-05-02T04:23:10.653Z,28.80
2023-05-02T04:24:10.600Z,29.24
2023-05-02T04:25:10.602Z,30.58
2023-05-02T04:26:10.626Z,28.17
2023-05-02T04:27:12.001Z,32.61
2023-05-02T04:28:10.613Z,33.64
2023-05-02T04:29:10.604Z,31.44
2023-05-02T04:30:10.578Z,26.24
2023-05-02T04:31:10.705Z,30.54
2023-05-02T04:32:10.563Z,26.45
2023-05-02T04:33:10.596Z,28.78
2023-05-02T04:34:10.612Z,27.13
2023-05-02T04:35:10.547Z,29.07
2023-05-02T04:36:10.554Z,30.21
2023-05-02T04:37:10.527Z,29.60
2023-05-02T04:38:10.531Z,27.42
2023-05-02T04:39:10.544Z,27.27
2023-05-02T04:40:10.553Z,27.15
2023-05-02T04:41:10.519Z,25.00
2023-05-02T04:42:10.532Z,29.94
2023-05-02T04:43:10.516Z,28.21
2023-05-02T04:44:10.500Z,27.53
2023-05-02T04:45:10.497Z,27.22
2023-05-02T04:46:10.559Z,29.35
2023-05-02T04:47:10.454Z,29.47
2023-05-02T04:48:10.489Z,29.41
2023-05-02T04:49:10.477Z,27.21
2023-05-02T04:50:10.479Z,26.78
2023-05-02T04:51:10.433Z,28.35
2023-05-02T04:52:10.475Z,28.38
2023-05-02T04:53:10.434Z,26.16
2023-05-02T04:54:10.436Z,27.53
2023-05-02T04:55:10.394Z,27.27
2023-05-02T04:56:10.396Z,30.09
2023-05-02T04:57:10.424Z,28.89
2023-05-02T04:58:10.393Z,26.82
2023-05-02T04:59:10.359Z,27.44
2023-05-02T05:00:10.386Z,26.75
2023-05-02T05:01:10.532Z,27.82
2023-05-02T05:02:10.407Z,28.33
2023-05-02T05:03:10.472Z,30.43
2023-05-02T05:04:10.618Z,27.95
2023-05-02T05:05:10.406Z,26.70
2023-05-02T05:06:10.380Z,25.71
2023-05-02T05:07:10.343Z,28.26
2023-05-02T05:08:10.318Z,27.08
2023-05-02T05:09:10.328Z,25.66
2023-05-02T05:10:10.329Z,27.70
2023-05-02T05:11:10.330Z,29.12
2023-05-02T05:12:10.353Z,27.28
2023-05-02T05:13:10.298Z,29.48
2023-05-02T05:14:10.307Z,26.55
2023-05-02T05:15:10.327Z,25.59
2023-05-02T05:16:10.295Z,28.50
2023-05-02T05:17:10.304Z,29.40
2023-05-02T05:18:10.271Z,28.85
2023-05-02T05:19:10.256Z,28.54
2023-05-02T05:20:10.841Z,25.27
2023-05-02T05:21:10.250Z,26.76
2023-05-02T05:22:10.215Z,29.81
2023-05-02T05:23:10.253Z,27.68
2023-05-02T05:24:10.260Z,30.61
2023-05-02T05:25:10.251Z,28.80
2023-05-02T05:26:10.218Z,28.20
2023-05-02T05:27:10.208Z,29.94
2023-05-02T05:28:10.188Z,32.80
2023-05-02T05:29:10.212Z,30.10
2023-05-02T05:30:10.171Z,31.80
2023-05-02T05:31:10.269Z,30.64
2023-05-02T05:32:10.300Z,25.92
2023-05-02T05:33:10.190Z,28.62
2023-05-02T05:34:10.233Z,29.89
2023-05-02T05:35:10.149Z,27.63
2023-05-02T05:36:10.117Z,29.37
2023-05-02T05:37:10.134Z,31.27
2023-05-02T05:38:10.127Z,31.74
2023-05-02T05:39:10.125Z,31.02
2023-05-02T05:40:10.102Z,30.94
2023-05-02T05:41:10.115Z,33.83
2023-05-02T05:42:10.110Z,31.07
2023-05-02T05:43:10.094Z,33.00
2023-05-02T05:44:10.103Z,31.23
2023-05-02T05:45:10.074Z,27.00
2023-05-02T05:46:10.096Z,29.71
2023-05-02T05:47:10.237Z,30.69
2023-05-02T05:48:10.123Z,29.54
2023-05-02T05:49:10.118Z,31.89
2023-05-02T05:50:10.043Z,29.69
2023-05-02T05:51:10.063Z,28.62
2023-05-02T05:52:10.074Z,31.14
2023-05-02T05:53:10.029Z,29.38
2023-05-02T05:54:10.048Z,29.66
2023-05-02T05:55:10.025Z,30.96
2023-05-02T05:56:10.051Z,29.55
2023-05-02T05:57:10.026Z,27.46
2023-05-02T05:58:10.005Z,28.66
2023-05-02T05:59:09.984Z,29.64
2023-05-02T06:00:09.990Z,29.22
2023-05-02T06:01:09.985Z,31.55
2023-05-02T06:02:09.979Z,30.97
2023-05-02T06:03:10.206Z,31.86
2023-05-02T06:04:10.091Z,29.72
2023-05-02T06:05:10.082Z,30.82
2023-05-02T06:06:10.004Z,32.40
2023-05-02T06:07:09.979Z,33.17
2023-05-02T06:08:09.921Z,31.95
2023-05-02T06:09:09.920Z,33.32
2023-05-02T06:10:09.910Z,31.47
2023-05-02T06:11:09.910Z,31.28
2023-05-02T06:12:09.883Z,34.34
2023-05-02T06:13:09.915Z,32.15
2023-05-02T06:14:09.878Z,31.90
2023-05-02T06:15:09.854Z,29.14
2023-05-02T06:16:09.900Z,32.34
2023-05-02T06:17:10.405Z,33.29
2023-05-02T06:18:09.924Z,30.83
2023-05-02T06:19:09.829Z,31.45
2023-05-02T06:20:09.859Z,33.82
2023-05-02T06:21:09.826Z,32.35
2023-05-02T06:22:09.816Z,34.44
2023-05-02T06:23:09.847Z,33.26
2023-05-02T06:24:09.829Z,33.42
2023-05-02T06:25:09.805Z,32.54
2023-05-02T06:26:09.793Z,31.68
2023-05-02T06:27:09.802Z,32.61
2023-05-02T06:28:09.790Z,32.64
2023-05-02T06:29:09.776Z,35.08
2023-05-02T06:30:09.781Z,32.08
2023-05-02T06:31:09.834Z,32.46
2023-05-02T06:32:09.782Z,33.08
2023-05-02T06:33:09.854Z,33.01
2023-05-02T06:34:09.761Z,31.49
2023-05-02T06:35:09.724Z,35.85
2023-05-02T06:36:09.728Z,32.02
2023-05-02T06:37:10.368Z,34.97
2023-05-02T06:38:09.867Z,32.62
2023-05-02T06:39:09.750Z,32.79
2023-05-02T06:40:09.742Z,33.62
2023-05-02T06:41:09.724Z,35.73
2023-05-02T06:42:09.705Z,32.37
2023-05-02T06:43:09.675Z,31.92
2023-05-02T06:44:09.667Z,31.97
2023-05-02T06:45:09.636Z,34.06
2023-05-02T06:46:09.628Z,32.20
2023-05-02T06:47:09.663Z,31.33
2023-05-02T06:48:09.684Z,31.60
2023-05-02T06:49:09.647Z,30.96
2023-05-02T06:50:09.605Z,31.79
2023-05-02T06:51:09.619Z,33.64
2023-05-02T06:52:09.674Z,32.86
2023-05-02T06:53:09.659Z,34.78
2023-05-02T06:54:09.616Z,35.91
2023-05-02T06:55:09.610Z,36.48
2023-05-02T06:56:09.579Z,34.17
2023-05-02T06:57:09.595Z,34.87
2023-05-02T06:58:09.586Z,32.06
2023-05-02T06:59:09.533Z,31.52
2023-05-02T07:00:09.553Z,33.05
2023-05-02T07:01:09.594Z,33.52
2023-05-02T07:02:09.530Z,31.08
2023-05-02T07:03:09.578Z,31.76
2023-05-02T07:04:09.610Z,32.51
2023-05-02T07:05:09.501Z,32.98
2023-05-02T07:06:09.604Z,33.19
2023-05-02T07:07:09.537Z,31.55
2023-05-02T07:08:09.516Z,33.36
2023-05-02T07:09:09.565Z,32.05
2023-05-02T07:10:09.490Z,32.02
2023-05-02T07:11:09.493Z,31.64
2023-05-02T07:12:09.468Z,32.29
2023-05-02T07:13:09.468Z,32.16
2023-05-02T07:14:09.521Z,31.30
2023-05-02T07:15:09.457Z,30.83
2023-05-02T07:16:09.469Z,33.97
2023-05-02T07:17:09.518Z,33.17
2023-05-02T07:18:09.434Z,32.71
2023-05-02T07:19:09.421Z,33.70
2023-05-02T07:20:09.427Z,32.46
2023-05-02T07:21:09.382Z,29.69
2023-05-02T07:22:09.405Z,29.37
2023-05-02T07:23:09.437Z,31.15
2023-05-02T07:24:09.401Z,31.33
2023-05-02T07:25:09.362Z,30.68
2023-05-02T07:26:09.368Z,28.76
2023-05-02T07:27:09.358Z,30.77
2023-05-02T07:28:09.448Z,29.60
2023-05-02T07:29:09.327Z,29.35
2023-05-02T07:30:09.339Z,29.16
2023-05-02T07:31:09.342Z,28.18
2023-05-02T07:32:09.445Z,31.66
2023-05-02T07:33:09.333Z,28.67
2023-05-02T07:34:09.319Z,29.85
2023-05-02T07:35:09.316Z,29.43
2023-05-02T07:36:09.284Z,29.09
2023-05-02T07:37:09.336Z,30.31
2023-05-02T07:38:09.352Z,28.53
2023-05-02T07:39:09.278Z,29.82
2023-05-02T07:40:09.313Z,28.90
2023-05-02T07:41:09.259Z,31.38
2023-05-02T07:42:09.232Z,26.18
2023-05-02T07:43:11.091Z,28.12
2023-05-02T07:44:09.252Z,31.82
2023-05-02T07:45:09.235Z,28.86
2023-05-02T07:46:09.299Z,30.44
2023-05-02T07:47:09.218Z,30.63
2023-05-02T07:48:09.244Z,28.86
2023-05-02T07:49:09.225Z,31.69
2023-05-02T07:50:09.199Z,31.65
2023-05-02T07:51:09.200Z,31.39
2023-05-02T07:52:09.188Z,29.59
2023-05-02T07:53:09.184Z,27.07
2023-05-02T07:54:09.172Z,29.74
2023-05-02T07:55:09.168Z,30.06
2023-05-02T07:56:09.156Z,29.86
2023-05-02T07:57:09.116Z,29.14
2023-05-02T07:58:09.124Z,31.07
2023-05-02T07:59:09.103Z,31.11
2023-05-02T08:00:09.109Z,29.96
2023-05-02T08:01:09.119Z,32.84
2023-05-02T08:02:09.151Z,32.88
2023-05-02T08:03:09.157Z,28.90
2023-05-02T08:04:09.287Z,31.01
2023-05-02T08:05:09.330Z,32.12
2023-05-02T08:06:09.111Z,30.78
2023-05-02T08:07:09.085Z,28.75
2023-05-02T08:08:09.063Z,28.52
2023-05-02T08:09:09.090Z,29.78
2023-05-02T08:10:09.072Z,31.29
2023-05-02T08:11:09.068Z,30.83
2023-05-02T08:12:09.070Z,31.30
2023-05-02T08:13:09.050Z,29.57
2023-05-02T08:14:09.043Z,31.26
2023-05-02T08:15:09.050Z,29.45
2023-05-02T08:16:09.093Z,32.02
2023-05-02T08:17:09.021Z,29.40
2023-05-02T08:18:09.026Z,30.05
2023-05-02T08:19:08.976Z,32.24
2023-05-02T08:20:09.002Z,28.43
2023-05-02T08:21:08.999Z,28.47
2023-05-02T08:22:08.993Z,31.84
2023-05-02T08:23:08.983Z,35.47
2023-05-02T08:24:08.955Z,32.51
2023-05-02T08:25:08.956Z,31.59
2023-05-02T08:26:08.933Z,43.20
2023-05-02T08:27:08.956Z,38.49
2023-05-02T08:28:08.928Z,33.00
2023-05-02T08:29:08.938Z,32.98
2023-05-02T08:30:09.174Z,36.18
2023-05-02T08:31:08.973Z,33.31
2023-05-02T08:32:09.032Z,34.89
2023-05-02T08:33:08.987Z,34.63
2023-05-02T08:34:08.884Z,36.29
2023-05-02T08:35:08.912Z,34.70
2023-05-02T08:36:08.902Z,35.12
2023-05-02T08:37:08.877Z,34.04
2023-05-02T08:38:08.887Z,32.16
2023-05-02T08:39:08.875Z,32.77
2023-05-02T08:40:08.867Z,31.30
2023-05-02T08:41:08.850Z,33.64
2023-05-02T08:42:08.924Z,30.93
2023-05-02T08:43:08.919Z,32.91
2023-05-02T08:44:08.829Z,31.67
2023-05-02T08:45:08.821Z,33.10
2023-05-02T08:46:08.784Z,32.64
2023-05-02T08:47:08.852Z,34.34
2023-05-02T08:48:08.860Z,31.95
2023-05-02T08:49:08.773Z,31.02
2023-05-02T08:50:08.781Z,35.13
2023-05-02T08:51:08.787Z,33.23
2023-05-02T08:52:08.767Z,34.47
2023-05-02T08:53:08.796Z,34.47
2023-05-02T08:54:08.749Z,35.79
2023-05-02T08:55:08.754Z,33.17
2023-05-02T08:56:08.740Z,35.75
2023-05-02T08:57:08.750Z,35.12
2023-05-02T08:58:08.740Z,35.43
2023-05-02T08:59:08.696Z,33.67
2023-05-02T09:00:08.719Z,34.04
2023-05-02T09:01:08.752Z,33.82
2023-05-02T09:02:08.697Z,34.36
2023-05-02T09:03:08.719Z,34.57
2023-05-02T09:04:08.674Z,36.20
2023-05-02T09:05:08.689Z,38.33
2023-05-02T09:06:08.728Z,37.32
2023-05-02T09:07:09.591Z,34.51
2023-05-02T09:08:08.750Z,35.07
2023-05-02T09:09:08.749Z,34.86
2023-05-02T09:10:08.737Z,33.01
2023-05-02T09:11:08.776Z,36.49
2023-05-02T09:12:08.759Z,33.01
2023-05-02T09:13:08.757Z,34.38
2023-05-02T09:14:08.793Z,33.45
2023-05-02T09:15:08.796Z,33.36
2023-05-02T09:16:08.810Z,30.61
2023-05-02T09:17:08.855Z,34.96
2023-05-02T09:18:08.839Z,34.61
2023-05-02T09:19:08.865Z,30.70
2023-05-02T09:20:08.868Z,32.74
2023-05-02T09:21:08.971Z,35.15
2023-05-02T09:22:08.883Z,34.01
2023-05-02T09:23:08.963Z,34.92
2023-05-02T09:24:08.964Z,34.68
2023-05-02T09:25:08.961Z,33.80
2023-05-02T09:26:08.972Z,32.55
2023-05-02T09:27:08.997Z,33.30
2023-05-02T09:28:08.996Z,33.22
2023-05-02T09:29:08.961Z,32.51
2023-05-02T09:30:09.007Z,33.79
2023-05-02T09:31:08.992Z,33.35
2023-05-02T09:32:09.071Z,32.67
2023-05-02T09:33:09.466Z,34.79
2023-05-02T09:34:08.942Z,31.89
2023-05-02T09:35:08.996Z,32.19
2023-05-02T09:36:08.955Z,34.00
2023-05-02T09:37:08.949Z,33.19
2023-05-02T09:38:09.419Z,32.32
2023-05-02T09:39:08.968Z,33.53
2023-05-02T09:40:08.914Z,33.81
2023-05-02T09:41:08.943Z,33.17
2023-05-02T09:42:08.976Z,33.18
2023-05-02T09:43:08.913Z,28.18
2023-05-02T09:44:08.965Z,29.21
2023-05-02T09:45:08.949Z,31.12
2023-05-02T09:46:09.058Z,30.64
2023-05-02T09:47:08.975Z,30.13
2023-05-02T09:48:09.438Z,33.94
2023-05-02T09:49:09.012Z,35.07
2023-05-02T09:50:09.012Z,34.53
2023-05-02T09:51:09.088Z,35.04
2023-05-02T09:52:09.119Z,34.79
2023-05-02T09:53:09.463Z,32.88
2023-05-02T09:54:09.119Z,35.22
2023-05-02T09:55:09.154Z,33.92
2023-05-02T09:56:09.189Z,34.92
2023-05-02T09:57:09.172Z,32.63
2023-05-02T09:58:09.653Z,37.06
2023-05-02T09:59:09.218Z,34.07
2023-05-02T10:00:09.261Z,34.88
2023-05-02T10:01:09.245Z,33.61
2023-05-02T10:02:09.236Z,31.14
2023-05-02T10:03:09.484Z,36.79
2023-05-02T10:04:09.287Z,37.49
2023-05-02T10:05:09.283Z,36.71
2023-05-02T10:06:09.409Z,35.20
2023-05-02T10:07:09.303Z,34.76
2023-05-02T10:08:09.438Z,35.62
2023-05-02T10:09:09.338Z,32.92
2023-05-02T10:10:09.355Z,34.43
2023-05-02T10:11:09.339Z,35.19
2023-05-02T10:12:09.364Z,35.46
2023-05-02T10:13:09.465Z,36.49
2023-05-02T10:14:09.415Z,34.31
2023-05-02T10:15:09.427Z,32.61
2023-05-02T10:16:09.550Z,36.15
2023-05-02T10:17:09.469Z,30.32
2023-05-02T10:18:09.669Z,35.86
2023-05-02T10:19:09.533Z,37.37
2023-05-02T10:20:09.591Z,36.88
2023-05-02T10:21:09.592Z,35.20
2023-05-02T10:22:09.643Z,35.17
2023-05-02T10:23:09.691Z,36.77
2023-05-02T10:24:09.717Z,36.17
2023-05-02T10:25:09.695Z,37.91
2023-05-02T10:26:09.755Z,36.33
2023-05-02T10:27:09.752Z,37.14
2023-05-02T10:28:09.750Z,34.76
2023-05-02T10:29:09.802Z,36.86
2023-05-02T10:30:09.814Z,39.36
2023-05-02T10:31:09.823Z,37.05
2023-05-02T10:32:09.800Z,36.19
2023-05-02T10:33:09.834Z,37.30
2023-05-02T10:34:09.817Z,39.76
2023-05-02T10:35:09.891Z,38.78
2023-05-02T10:36:09.891Z,38.18
2023-05-02T10:37:09.912Z,38.44
2023-05-02T10:38:09.953Z,38.68
2023-05-02T10:39:10.010Z,39.44
2023-05-02T10:40:10.079Z,36.49
2023-05-02T10:41:10.129Z,37.59
2023-05-02T10:42:10.177Z,36.91
2023-05-02T10:43:10.189Z,40.76
2023-05-02T10:44:10.210Z,46.84
2023-05-02T10:45:10.271Z,51.38
2023-05-02T10:46:10.379Z,45.45
2023-05-02T10:47:10.360Z,42.05
2023-05-02T10:48:10.524Z,44.65
2023-05-02T10:49:10.482Z,46.73
2023-05-02T10:50:10.538Z,50.07
2023-05-02T10:51:10.591Z,56.29
2023-05-02T10:52:10.653Z,61.07
2023-05-02T10:53:10.962Z,63.23
2023-05-02T10:54:10.760Z,66.05
2023-05-02T10:55:10.845Z,70.13
2023-05-02T10:56:10.900Z,69.59
2023-05-02T10:57:10.959Z,67.60
2023-05-02T10:58:11.467Z,68.32
2023-05-02T10:59:11.063Z,71.39
2023-05-02T11:00:11.106Z,74.27
2023-05-02T11:01:11.135Z,73.27
2023-05-02T11:02:11.189Z,72.15
2023-05-02T11:03:11.332Z,74.08
2023-05-02T11:04:11.348Z,72.13
2023-05-02T11:05:11.368Z,73.51
2023-05-02T11:06:11.507Z,73.30
2023-05-02T11:07:11.492Z,73.17
2023-05-02T11:08:11.532Z,73.94
2023-05-02T11:09:11.597Z,71.39
2023-05-02T11:10:11.652Z,71.77
2023-05-02T11:11:11.730Z,68.55
2023-05-02T11:12:11.781Z,72.69
2023-05-02T11:13:11.847Z,70.83
2023-05-02T11:14:12.229Z,73.61
2023-05-02T11:15:12.006Z,77.69
2023-05-02T11:16:12.124Z,73.93
2023-05-02T11:17:12.144Z,72.84
2023-05-02T11:18:14.465Z,76.07
2023-05-02T11:19:12.168Z,74.70
2023-05-02T11:20:12.232Z,76.10
2023-05-02T11:21:12.105Z,79.24
2023-05-02T11:22:12.137Z,74.19
2023-05-02T11:23:12.511Z,77.35
2023-05-02T11:24:12.286Z,76.44
2023-05-02T11:25:13.225Z,75.19
2023-05-02T11:26:12.145Z,76.40
2023-05-02T11:27:12.158Z,76.87
2023-05-02T11:28:12.318Z,76.38
2023-05-02T11:29:14.163Z,76.57
2023-05-02T11:30:12.405Z,81.67
2023-05-02T11:31:12.941Z,76.27
2023-05-02T11:32:12.271Z,75.82
2023-05-02T11:33:12.900Z,76.87
2023-05-02T11:34:12.457Z,76.04
2023-05-02T11:35:12.708Z,76.34
2023-05-02T11:36:12.136Z,75.59
2023-05-02T11:37:12.078Z,73.29
2023-05-02T11:38:13.354Z,72.95
2023-05-02T11:39:12.001Z,74.59
2023-05-02T11:40:12.436Z,72.73
2023-05-02T11:41:12.384Z,74.34
2023-05-02T11:42:12.097Z,75.89
2023-05-02T11:43:12.567Z,74.74
2023-05-02T11:44:12.159Z,76.27
2023-05-02T11:45:12.050Z,70.92
2023-05-02T11:46:11.986Z,76.83
2023-05-02T11:47:11.961Z,73.55
2023-05-02T11:48:12.014Z,74.06
2023-05-02T11:49:12.720Z,76.82
2023-05-02T11:50:12.109Z,74.57
2023-05-02T11:51:12.153Z,70.30
2023-05-02T11:52:12.229Z,75.41
2023-05-02T11:53:12.386Z,74.12
2023-05-02T11:54:12.375Z,71.83
2023-05-02T11:55:12.384Z,76.24
2023-05-02T11:56:12.463Z,75.39
2023-05-02T11:57:12.528Z,75.33
2023-05-02T11:58:12.626Z,74.15
2023-05-02T11:59:12.657Z,72.09
2023-05-02T12:00:12.744Z,72.72
2023-05-02T12:01:12.750Z,69.55
2023-05-02T12:02:12.880Z,72.92
2023-05-02T12:03:12.945Z,71.47
2023-05-02T12:04:12.924Z,71.53
2023-05-02T12:05:13.036Z,73.69
2023-05-02T12:06:13.232Z,73.45
2023-05-02T12:07:13.119Z,73.58
2023-05-02T12:08:13.165Z,72.93
2023-05-02T12:09:13.258Z,74.31
2023-05-02T12:10:13.321Z,74.46
2023-05-02T12:11:13.366Z,71.33
2023-05-02T12:12:13.465Z,70.80
2023-05-02T12:13:14.000Z,69.93
2023-05-02T12:14:13.556Z,69.83
2023-05-02T12:15:13.621Z,70.26
2023-05-02T12:16:13.855Z,75.10
2023-05-02T12:17:13.700Z,70.56
2023-05-02T12:18:13.720Z,70.63
2023-05-02T12:19:13.789Z,70.20
2023-05-02T12:20:13.819Z,71.92
2023-05-02T12:21:13.902Z,71.75
2023-05-02T12:22:13.967Z,76.31
2023-05-02T12:23:14.028Z,70.32
2023-05-02T12:24:14.086Z,71.58
2023-05-02T12:25:14.158Z,70.09
2023-05-02T12:26:14.230Z,70.58
2023-05-02T12:27:14.243Z,72.70
2023-05-02T12:28:14.331Z,70.34
2023-05-02T12:29:14.393Z,70.45
2023-05-02T12:30:14.481Z,68.69
2023-05-02T12:31:14.520Z,72.24
2023-05-02T12:32:14.548Z,69.58
2023-05-02T12:33:14.679Z,67.77
2023-05-02T12:34:14.636Z,69.16
2023-05-02T12:35:14.665Z,64.95
2023-05-02T12:36:14.770Z,66.13
2023-05-02T12:37:14.762Z,66.49
2023-05-02T12:38:14.832Z,69.93
2023-05-02T12:39:14.985Z,72.02
2023-05-02T12:40:14.920Z,67.33
2023-05-02T12:41:14.948Z,71.68
2023-05-02T12:42:14.994Z,70.74
2023-05-02T12:43:15.023Z,71.65
2023-05-02T12:44:15.089Z,71.34
2023-05-02T12:45:15.138Z,69.20
2023-05-02T12:46:15.261Z,68.73
2023-05-02T12:47:15.454Z,68.76
2023-05-02T12:48:15.466Z,66.72
2023-05-02T12:49:15.337Z,64.09
2023-05-02T12:50:15.375Z,67.63
2023-05-02T12:51:15.446Z,69.45
2023-05-02T12:52:15.448Z,67.05